Time;durP1;ratioP1;P1;durP2;ratioP2;P2;SDS_P1;SDS_P2;PMS_P1;PMS_P2;Temp;Humidity;BMP_temperature;BMP_pressure;BME280_temperature;BME280_humidity;BME280_pressure;Samples;Min_cycle;Max_cycle;Signal;HPM_P1;HPM_P2
2022/01/21 00:00:20;;;;;;;6.00;1.10;;;;;;;;;;5096905;28;20036;-80
2022/01/21 00:02:46;;;;;;;3.28;0.85;;;;;;;;;;5097746;28;20028;-80
2022/01/21 00:05:11;;;;;;;5.80;0.90;;;;;;;;;;5096895;28;20101;-80
2022/01/21 00:07:36;;;;;;;3.75;1.00;;;;;;;;;;5097028;28;20031;-80
2022/01/21 00:10:04;;;;;;;3.42;1.02;;;;;;;;;;5096920;28;20030;-81
2022/01/21 00:12:31;;;;;;;3.78;0.73;;;;;;;;;;5096531;28;20031;-80
2022/01/21 00:14:56;;;;;;;4.20;1.10;;;;;;;;;;5097203;28;20136;-80
2022/01/21 00:17:23;;;;;;;4.13;0.70;;;;;;;;;;5094896;28;20020;-80
2022/01/21 00:19:52;;;;;;;1.15;0.32;;;;;;;;;;5095055;28;20042;-80
2022/01/21 00:30:31;;;;;;;3.03;0.68;;;;;;;;;;5096680;28;20096;-80
2022/01/21 00:32:56;;;;;;;4.82;0.77;;;;;;;;;;5095114;28;20487;-80
2022/01/21 00:35:22;;;;;;;2.97;0.70;;;;;;;;;;5096073;28;20481;-79
2022/01/21 00:37:48;;;;;;;4.68;0.95;;;;;;;;;;5096275;28;20016;-79
2022/01/21 00:40:18;;;;;;;9.18;1.20;;;;;;;;;;5096005;28;20575;-79
2022/01/21 00:42:52;;;;;;;6.88;0.80;;;;;;;;;;5094820;28;20023;-79
2022/01/21 00:45:19;;;;;;;1.83;0.60;;;;;;;;;;5096231;28;20031;-79
2022/01/21 00:47:45;;;;;;;3.55;0.85;;;;;;;;;;5095627;28;20028;-79
2022/01/21 00:50:11;;;;;;;2.20;0.65;;;;;;;;;;5095802;28;20394;-79
2022/01/21 00:52:37;;;;;;;7.60;0.80;;;;;;;;;;5095540;28;20503;-79
2022/01/21 00:55:03;;;;;;;8.70;1.00;;;;;;;;;;5096171;28;20023;-79
2022/01/21 00:57:28;;;;;;;1.95;0.77;;;;;;;;;;5095433;28;20111;-79
2022/01/21 00:59:54;;;;;;;3.25;0.80;;;;;;;;;;5094248;28;20109;-79
2022/01/21 01:02:19;;;;;;;4.07;0.93;;;;;;;;;;5093980;28;20023;-79
2022/01/21 01:04:44;;;;;;;6.35;0.95;;;;;;;;;;5095719;28;20020;-79
2022/01/21 01:07:09;;;;;;;6.00;1.05;;;;;;;;;;5095474;28;20048;-80
2022/01/21 01:09:35;;;;;;;6.10;1.02;;;;;;;;;;5097687;28;20020;-80
2022/01/21 01:19:58;;;;;;;4.93;0.98;;;;;;;;;;5100406;28;20027;-79
2022/01/21 01:22:41;;;;;;;2.13;0.70;;;;;;;;;;5099302;28;20039;-79
2022/01/21 01:27:50;;;;;;;3.03;0.73;;;;;;;;;;5100558;28;20027;-79
2022/01/21 01:30:19;;;;;;;4.88;0.82;;;;;;;;;;5100103;28;20020;-79
2022/01/21 01:32:49;;;;;;;1.50;0.50;;;;;;;;;;5099869;28;20427;-79
2022/01/21 01:35:18;;;;;;;1.38;0.73;;;;;;;;;;5099845;28;20034;-79
2022/01/21 01:40:33;;;;;;;;;;;;;;;;;;5099495;28;20069;-79
2022/01/21 01:51:11;;;;;;;6.43;0.93;;;;;;;;;;5099220;28;20039;-79
2022/01/21 01:53:43;;;;;;;5.47;0.80;;;;;;;;;;5097883;28;20500;-80
2022/01/21 01:56:12;;;;;;;3.42;0.50;;;;;;;;;;5099336;28;20077;-79
2022/01/21 01:58:40;;;;;;;2.50;0.63;;;;;;;;;;5097532;28;20024;-79
2022/01/21 02:01:06;;;;;;;4.90;0.90;;;;;;;;;;5098334;28;20019;-80
2022/01/21 02:03:32;;;;;;;2.00;0.60;;;;;;;;;;5097752;28;20055;-79
2022/01/21 02:05:57;;;;;;;4.80;0.90;;;;;;;;;;5098483;28;20036;-79
2022/01/21 02:08:23;;;;;;;6.97;1.17;;;;;;;;;;5097374;28;20531;-78
2022/01/21 02:10:48;;;;;;;4.68;1.10;;;;;;;;;;5098718;28;20058;-78
2022/01/21 02:13:26;;;;;;;1.92;0.55;;;;;;;;;;5098545;28;20024;-79
2022/01/21 02:16:16;;;;;;;3.13;0.60;;;;;;;;;;5099819;28;20023;-79
2022/01/21 02:23:53;;;;;;;3.40;0.75;;;;;;;;;;5098041;28;20051;-80
2022/01/21 02:26:18;;;;;;;3.38;0.75;;;;;;;;;;5097157;28;20473;-78
2022/01/21 02:28:43;;;;;;;5.13;0.88;;;;;;;;;;5098636;28;20531;-79
2022/01/21 02:31:09;;;;;;;2.28;0.70;;;;;;;;;;5098769;28;20035;-79
2022/01/21 02:33:34;;;;;;;3.63;0.55;;;;;;;;;;5098401;28;20020;-80
2022/01/21 02:35:59;;;;;;;0.50;0.47;;;;;;;;;;5099240;28;20062;-79
2022/01/21 02:38:24;;;;;;;3.03;0.95;;;;;;;;;;5098872;28;20020;-79
2022/01/21 02:40:49;;;;;;;2.45;0.57;;;;;;;;;;5096957;28;20031;-79
2022/01/21 02:43:15;;;;;;;2.28;0.60;;;;;;;;;;5096648;28;20058;-79
2022/01/21 02:45:45;;;;;;;7.10;0.88;;;;;;;;;;5099574;28;20020;-79
2022/01/21 02:48:11;;;;;;;2.80;0.70;;;;;;;;;;5097561;28;20434;-80
2022/01/21 02:50:36;;;;;;;3.92;0.55;;;;;;;;;;5097880;28;20028;-79
2022/01/21 02:53:24;;;;;;;2.08;0.85;;;;;;;;;;5097293;28;20633;-79
2022/01/21 02:55:49;;;;;;;5.65;1.00;;;;;;;;;;5095526;28;20020;-80
2022/01/21 02:58:15;;;;;;;1.65;0.52;;;;;;;;;;5096981;28;20042;-79
2022/01/21 03:00:40;;;;;;;4.90;0.77;;;;;;;;;;5097436;28;20024;-79
2022/01/21 03:03:05;;;;;;;3.42;0.60;;;;;;;;;;5097679;28;20047;-79
2022/01/21 03:05:34;;;;;;;4.90;0.80;;;;;;;;;;5097523;28;20023;-79
2022/01/21 03:07:59;;;;;;;2.85;0.63;;;;;;;;;;5097288;28;20099;-79
2022/01/21 03:10:26;;;;;;;4.95;1.10;;;;;;;;;;5096436;28;20048;-79
2022/01/21 03:12:51;;;;;;;2.42;0.77;;;;;;;;;;5096864;28;20035;-79
2022/01/21 03:15:17;;;;;;;3.03;0.80;;;;;;;;;;5097331;28;20024;-80
2022/01/21 03:17:42;;;;;;;2.55;0.40;;;;;;;;;;5097389;28;20020;-79
2022/01/21 03:20:08;;;;;;;1.75;0.60;;;;;;;;;;5096493;28;20024;-79
2022/01/21 03:22:33;;;;;;;3.05;0.73;;;;;;;;;;5095110;28;20028;-79
2022/01/21 03:24:58;;;;;;;4.65;0.90;;;;;;;;;;5096234;28;20028;-79
2022/01/21 03:27:23;;;;;;;4.88;0.95;;;;;;;;;;5096379;28;20093;-81
2022/01/21 03:29:49;;;;;;;4.65;0.70;;;;;;;;;;5096419;28;20085;-79
2022/01/21 03:32:14;;;;;;;6.00;1.08;;;;;;;;;;5095548;28;20031;-79
2022/01/21 03:34:39;;;;;;;10.25;0.82;;;;;;;;;;5096542;28;20032;-78
2022/01/21 03:37:05;;;;;;;3.53;0.80;;;;;;;;;;5097462;28;20412;-79
2022/01/21 03:39:30;;;;;;;3.13;0.40;;;;;;;;;;5096873;28;20488;-79
2022/01/21 03:41:55;;;;;;;2.15;0.73;;;;;;;;;;5095488;28;20023;-80
2022/01/21 03:44:20;;;;;;;3.97;0.70;;;;;;;;;;5095474;28;20026;-82
2022/01/21 03:46:46;;;;;;;2.63;0.80;;;;;;;;;;5096250;28;20514;-79
2022/01/21 03:49:11;;;;;;;2.13;0.47;;;;;;;;;;5096212;28;20027;-80
2022/01/21 03:51:36;;;;;;;2.35;0.43;;;;;;;;;;5096602;28;20138;-79
2022/01/21 03:54:02;;;;;;;6.13;0.68;;;;;;;;;;5094575;28;20039;-79
2022/01/21 03:56:27;;;;;;;5.45;0.70;;;;;;;;;;5096636;28;20024;-79
2022/01/21 03:58:53;;;;;;;2.28;0.63;;;;;;;;;;5094861;28;20457;-79
2022/01/21 04:01:19;;;;;;;2.85;0.60;;;;;;;;;;5095480;28;20019;-80
2022/01/21 04:03:44;;;;;;;3.33;0.63;;;;;;;;;;5095892;28;20106;-79
2022/01/21 04:06:10;;;;;;;5.63;0.93;;;;;;;;;;5095904;28;20036;-79
2022/01/21 04:08:35;;;;;;;3.88;0.85;;;;;;;;;;5095794;28;20103;-79
2022/01/21 04:11:00;;;;;;;7.40;0.90;;;;;;;;;;5094731;28;20024;-79
2022/01/21 04:13:26;;;;;;;3.53;0.80;;;;;;;;;;5096449;28;20477;-79
2022/01/21 04:15:54;;;;;;;3.90;0.70;;;;;;;;;;5095591;28;20030;-79
2022/01/21 04:18:20;;;;;;;3.15;0.60;;;;;;;;;;5094288;28;20401;-79
2022/01/21 04:20:47;;;;;;;3.85;0.80;;;;;;;;;;5095998;28;20468;-79
2022/01/21 04:23:13;;;;;;;7.97;1.05;;;;;;;;;;5095960;28;20049;-79
2022/01/21 04:25:39;;;;;;;4.97;0.60;;;;;;;;;;5095409;28;20028;-80
2022/01/21 04:28:05;;;;;;;5.35;0.88;;;;;;;;;;5095718;28;20039;-80
2022/01/21 04:30:31;;;;;;;2.33;0.50;;;;;;;;;;5095974;28;20104;-79
2022/01/21 04:32:56;;;;;;;4.18;0.70;;;;;;;;;;5094369;28;20022;-79
2022/01/21 04:35:21;;;;;;;2.83;0.57;;;;;;;;;;5095394;28;20110;-79
2022/01/21 04:37:54;;;;;;;4.82;1.00;;;;;;;;;;5093567;28;20035;-79
2022/01/21 04:40:22;;;;;;;2.85;0.65;;;;;;;;;;5095172;28;20048;-80
2022/01/21 04:48:16;;;;;;;1.80;0.57;;;;;;;;;;5094984;28;20020;-79
2022/01/21 04:50:53;;;;;;;5.55;0.70;;;;;;;;;;5095228;28;20481;-79
2022/01/21 04:53:18;;;;;;;2.75;0.50;;;;;;;;;;5095721;28;20025;-79
2022/01/21 04:55:43;;;;;;;3.25;1.00;;;;;;;;;;5096080;28;20504;-78
2022/01/21 04:58:09;;;;;;;3.40;0.50;;;;;;;;;;5101887;28;20428;-79
2022/01/21 05:00:34;;;;;;;2.60;0.70;;;;;;;;;;5100090;28;20362;-79
2022/01/21 05:03:00;;;;;;;3.78;0.65;;;;;;;;;;5102715;28;20031;-79
2022/01/21 05:05:25;;;;;;;2.78;0.73;;;;;;;;;;5109044;28;20077;-79
2022/01/21 05:07:51;;;;;;;4.70;0.68;;;;;;;;;;5107312;28;20474;-79
2022/01/21 05:10:16;;;;;;;5.03;0.43;;;;;;;;;;5108955;28;20058;-78
2022/01/21 05:12:41;;;;;;;15.07;1.10;;;;;;;;;;5105310;28;20047;-79
2022/01/21 05:15:15;;;;;;;4.82;0.82;;;;;;;;;;5098547;28;20076;-79
2022/01/21 05:17:49;;;;;;;6.72;0.70;;;;;;;;;;5113084;28;20020;-80
2022/01/21 05:20:15;;;;;;;;;;;;;;;;;;5111239;28;20032;-79
2022/01/21 05:22:40;;;;;;;8.25;1.15;;;;;;;;;;5114414;28;19966;-79
2022/01/21 05:25:06;;;;;;;5.43;0.80;;;;;;;;;;5110204;28;20078;-79
2022/01/21 05:27:43;;;;;;;4.78;0.80;;;;;;;;;;5102978;28;20024;-81
2022/01/21 05:30:09;;;;;;;1.85;0.80;;;;;;;;;;5103648;28;20024;-79
2022/01/21 05:32:34;;;;;;;3.78;0.75;;;;;;;;;;5102473;28;20028;-80
2022/01/21 05:34:59;;;;;;;5.22;0.80;;;;;;;;;;5095314;28;20370;-80
2022/01/21 05:37:24;;;;;;;4.35;1.00;;;;;;;;;;5094636;28;20195;-79
2022/01/21 05:39:51;;;;;;;3.55;0.93;;;;;;;;;;5094270;28;20043;-78
2022/01/21 05:42:16;;;;;;;1.95;0.57;;;;;;;;;;5094784;28;20019;-79
2022/01/21 05:47:08;;;;;;;3.90;0.57;;;;;;;;;;5095598;28;20020;-79
2022/01/21 05:49:36;;;;;;;3.85;0.90;;;;;;;;;;5096745;28;20028;-79
2022/01/21 05:52:06;;;;;;;4.45;1.33;;;;;;;;;;5097958;28;20024;-79
2022/01/21 05:54:32;;;;;;;1.98;0.82;;;;;;;;;;5097894;28;20032;-81
2022/01/21 05:56:58;;;;;;;3.05;0.85;;;;;;;;;;5100395;28;20035;-79
2022/01/21 05:59:23;;;;;;;5.18;0.90;;;;;;;;;;5103448;28;20194;-78
2022/01/21 06:01:50;;;;;;;5.32;1.38;;;;;;;;;;5101022;28;20107;-79
2022/01/21 06:04:15;;;;;;;5.45;0.88;;;;;;;;;;5099961;28;20415;-79
2022/01/21 06:06:40;;;;;;;1.77;0.73;;;;;;;;;;5100183;28;20023;-79
2022/01/21 06:09:06;;;;;;;3.90;0.80;;;;;;;;;;5105936;28;20483;-79
2022/01/21 06:11:32;;;;;;;8.63;1.27;;;;;;;;;;5107854;28;20053;-79
2022/01/21 06:13:59;;;;;;;3.33;1.10;;;;;;;;;;5107025;28;20038;-79
2022/01/21 06:16:25;;;;;;;5.78;0.90;;;;;;;;;;5107872;28;20028;-79
2022/01/21 06:18:50;;;;;;;3.83;0.80;;;;;;;;;;5103972;28;20026;-80
2022/01/21 06:21:15;;;;;;;3.67;0.80;;;;;;;;;;5100908;28;20031;-79
2022/01/21 06:23:40;;;;;;;4.50;0.73;;;;;;;;;;5100834;28;20059;-79
2022/01/21 06:26:07;;;;;;;4.53;1.10;;;;;;;;;;5100808;28;20028;-79
2022/01/21 06:28:32;;;;;;;8.60;0.93;;;;;;;;;;5098286;28;20035;-79
2022/01/21 06:30:57;;;;;;;5.32;1.10;;;;;;;;;;5099084;28;20023;-79
2022/01/21 06:33:23;;;;;;;3.25;0.90;;;;;;;;;;5098357;28;20419;-79
2022/01/21 06:35:52;;;;;;;6.30;1.38;;;;;;;;;;5098128;28;20364;-79
2022/01/21 06:38:19;;;;;;;3.00;0.70;;;;;;;;;;5098446;28;20066;-79
2022/01/21 06:40:45;;;;;;;1.98;0.80;;;;;;;;;;5098237;28;20119;-79
2022/01/21 06:43:10;;;;;;;3.65;0.88;;;;;;;;;;5098671;28;20036;-79
2022/01/21 06:45:35;;;;;;;8.80;0.93;;;;;;;;;;5099242;28;20035;-79
2022/01/21 06:48:03;;;;;;;5.68;1.20;;;;;;;;;;5097353;28;20024;-80
2022/01/21 06:50:30;;;;;;;5.78;1.02;;;;;;;;;;5100000;28;20069;-80
2022/01/21 06:52:56;;;;;;;2.63;1.00;;;;;;;;;;5099787;28;20020;-78
2022/01/21 06:55:21;;;;;;;3.53;1.10;;;;;;;;;;5098467;28;20496;-79
2022/01/21 06:57:46;;;;;;;3.92;0.80;;;;;;;;;;5102018;28;20028;-80
2022/01/21 07:00:16;;;;;;;5.22;1.20;;;;;;;;;;5099230;28;20035;-80
2022/01/21 07:02:41;;;;;;;1.33;0.57;;;;;;;;;;5099195;28;20039;-80
2022/01/21 07:05:07;;;;;;;5.25;0.90;;;;;;;;;;5098535;28;20104;-80
2022/01/21 07:07:33;;;;;;;4.20;1.00;;;;;;;;;;5099651;28;20056;-79
2022/01/21 07:10:00;;;;;;;3.63;0.60;;;;;;;;;;5097850;28;20024;-79
2022/01/21 07:12:26;;;;;;;6.20;1.00;;;;;;;;;;5097923;28;20464;-79
2022/01/21 07:14:51;;;;;;;4.15;0.70;;;;;;;;;;5098730;28;20028;-78
2022/01/21 07:17:17;;;;;;;10.05;1.00;;;;;;;;;;5097428;28;20024;-79
2022/01/21 07:19:42;;;;;;;6.75;1.10;;;;;;;;;;5098314;28;20051;-79
2022/01/21 07:22:07;;;;;;;2.38;0.75;;;;;;;;;;5101296;28;20104;-81
2022/01/21 07:24:32;;;;;;;4.00;0.90;;;;;;;;;;5100785;28;20024;-80
2022/01/21 07:26:58;;;;;;;4.93;0.98;;;;;;;;;;5101407;28;20027;-80
2022/01/21 07:29:23;;;;;;;3.33;0.90;;;;;;;;;;5100765;28;20028;-81
2022/01/21 07:31:53;;;;;;;5.07;0.63;;;;;;;;;;5100161;28;20028;-80
2022/01/21 07:34:19;;;;;;;4.43;0.82;;;;;;;;;;5099488;28;20020;-79
2022/01/21 07:36:44;;;;;;;7.28;1.02;;;;;;;;;;5098076;28;20115;-79
2022/01/21 07:39:09;;;;;;;4.40;1.00;;;;;;;;;;5099011;28;20077;-79
2022/01/21 07:41:34;;;;;;;3.78;0.52;;;;;;;;;;5099381;28;20020;-78
2022/01/21 07:44:00;;;;;;;6.18;0.70;;;;;;;;;;5099626;28;20020;-80
2022/01/21 07:46:26;;;;;;;3.90;1.05;;;;;;;;;;5099075;28;20028;-80
2022/01/21 07:48:51;;;;;;;7.80;1.15;;;;;;;;;;5098696;28;20080;-78
2022/01/21 07:51:16;;;;;;;5.93;1.40;;;;;;;;;;5096250;28;20028;-78
2022/01/21 07:53:42;;;;;;;2.78;0.93;;;;;;;;;;5093672;28;20028;-76
2022/01/21 07:56:07;;;;;;;3.15;0.80;;;;;;;;;;5094330;28;20020;-77
2022/01/21 07:58:32;;;;;;;2.58;0.65;;;;;;;;;;5097180;28;20019;-79
2022/01/21 08:00:58;;;;;;;5.68;0.90;;;;;;;;;;5100992;28;20050;-82
2022/01/21 08:03:24;;;;;;;9.32;1.55;;;;;;;;;;5098966;28;20036;-80
2022/01/21 08:05:51;;;;;;;3.83;1.20;;;;;;;;;;5099838;28;20020;-80
2022/01/21 08:08:16;;;;;;;11.32;1.50;;;;;;;;;;5099853;28;20028;-81
2022/01/21 08:10:41;;;;;;;2.47;0.80;;;;;;;;;;5101469;28;20024;-78
2022/01/21 08:13:06;;;;;;;3.90;1.15;;;;;;;;;;5099868;28;20024;-80
2022/01/21 08:15:32;;;;;;;4.93;1.25;;;;;;;;;;5100919;28;20113;-81
2022/01/21 08:17:57;;;;;;;7.82;1.17;;;;;;;;;;5099004;28;20021;-80
2022/01/21 08:20:22;;;;;;;6.10;1.20;;;;;;;;;;5100471;28;20023;-80
2022/01/21 08:22:47;;;;;;;5.65;1.00;;;;;;;;;;5099489;28;20030;-80
2022/01/21 08:25:13;;;;;;;5.90;1.27;;;;;;;;;;5101569;28;20032;-80
2022/01/21 08:27:38;;;;;;;5.78;0.90;;;;;;;;;;5098663;28;20024;-80
2022/01/21 08:30:05;;;;;;;6.60;1.13;;;;;;;;;;5100867;28;20481;-80
2022/01/21 08:32:33;;;;;;;6.43;1.38;;;;;;;;;;5102183;28;20109;-80
2022/01/21 08:34:58;;;;;;;3.25;1.02;;;;;;;;;;5099481;28;20028;-80
2022/01/21 08:37:24;;;;;;;4.68;1.15;;;;;;;;;;5099498;28;20404;-79
2022/01/21 08:39:50;;;;;;;5.65;1.15;;;;;;;;;;5099463;28;20020;-80
2022/01/21 08:42:15;;;;;;;8.18;1.13;;;;;;;;;;5102123;28;20370;-80
2022/01/21 08:44:41;;;;;;;5.53;1.42;;;;;;;;;;5100418;28;20023;-81
2022/01/21 08:47:06;;;;;;;5.95;1.33;;;;;;;;;;5100879;28;20020;-79
2022/01/21 08:49:32;;;;;;;5.07;1.23;;;;;;;;;;5101804;28;20036;-80
2022/01/21 08:51:58;;;;;;;8.32;1.55;;;;;;;;;;5101344;28;20027;-80
2022/01/21 08:54:26;;;;;;;7.03;1.30;;;;;;;;;;5102199;28;20099;-80
2022/01/21 08:56:52;;;;;;;5.60;1.52;;;;;;;;;;5102427;28;20032;-80
2022/01/21 08:59:18;;;;;;;5.07;1.48;;;;;;;;;;5102010;28;20118;-81
2022/01/21 09:01:52;;;;;;;7.18;0.98;;;;;;;;;;5101507;28;20032;-80
2022/01/21 09:04:17;;;;;;;11.57;1.67;;;;;;;;;;5101369;28;20445;-80
2022/01/21 09:06:43;;;;;;;11.05;1.50;;;;;;;;;;5102194;28;20032;-79
2022/01/21 09:09:08;;;;;;;4.88;1.17;;;;;;;;;;5100273;28;20062;-80
2022/01/21 09:11:34;;;;;;;6.38;1.00;;;;;;;;;;5100541;28;20024;-79
2022/01/21 09:14:00;;;;;;;16.38;1.92;;;;;;;;;;5099604;28;20032;-82
2022/01/21 09:16:25;;;;;;;8.40;1.40;;;;;;;;;;5099136;28;20016;-79
2022/01/21 09:18:55;;;;;;;6.53;1.30;;;;;;;;;;5101239;28;20020;-79
2022/01/21 09:21:23;;;;;;;5.57;1.38;;;;;;;;;;5098740;28;20074;-81
2022/01/21 09:23:49;;;;;;;10.18;1.58;;;;;;;;;;5101868;28;20098;-81
2022/01/21 09:26:16;;;;;;;6.75;1.63;;;;;;;;;;5098569;28;20031;-79
2022/01/21 09:28:42;;;;;;;7.03;1.85;;;;;;;;;;5098367;28;20119;-79
2022/01/21 09:31:07;;;;;;;7.40;1.40;;;;;;;;;;5101885;28;20058;-79
2022/01/21 09:33:32;;;;;;;6.85;1.85;;;;;;;;;;5102309;28;20028;-80
2022/01/21 09:35:58;;;;;;;5.85;1.70;;;;;;;;;;5105688;28;20093;-80
2022/01/21 09:38:24;;;;;;;7.93;1.60;;;;;;;;;;5104188;28;20067;-80
2022/01/21 09:40:51;;;;;;;10.13;2.08;;;;;;;;;;5104499;28;20154;-80
2022/01/21 09:43:17;;;;;;;8.25;1.50;;;;;;;;;;5103840;28;20027;-78
2022/01/21 09:45:46;;;;;;;6.93;1.80;;;;;;;;;;5102313;28;20016;-80
2022/01/21 09:48:20;;;;;;;4.85;1.05;;;;;;;;;;5103523;28;20439;-79
2022/01/21 09:50:45;;;;;;;3.95;1.40;;;;;;;;;;5101440;28;20396;-79
2022/01/21 09:53:11;;;;;;;11.25;1.85;;;;;;;;;;5102751;28;20101;-79
2022/01/21 09:55:36;;;;;;;9.00;1.75;;;;;;;;;;5101484;28;20548;-80
2022/01/21 09:58:02;;;;;;;6.10;1.70;;;;;;;;;;5105475;28;20020;-80
2022/01/21 10:00:28;;;;;;;3.70;1.27;;;;;;;;;;5103880;28;20031;-80
2022/01/21 10:02:56;;;;;;;18.98;2.83;;;;;;;;;;5102720;28;20115;-80
2022/01/21 10:05:22;;;;;;;3.65;1.05;;;;;;;;;;5101328;28;20046;-80
2022/01/21 10:07:49;;;;;;;7.60;1.60;;;;;;;;;;5100979;28;20035;-80
2022/01/21 10:10:15;;;;;;;6.22;1.98;;;;;;;;;;5102537;28;20449;-80
2022/01/21 10:12:45;;;;;;;7.75;1.70;;;;;;;;;;5101318;28;20020;-80
2022/01/21 10:15:11;;;;;;;14.90;2.10;;;;;;;;;;5102205;28;20024;-80
2022/01/21 10:18:59;;;;;;;16.38;1.80;;;;;;;;;;5102908;28;20031;-80
2022/01/21 10:21:12;;;;;;;6.85;1.65;;;;;;;;;;5089027;28;20489;-80
2022/01/21 10:23:43;;;;;;;5.32;1.30;;;;;;;;;;5102432;28;20047;-80
2022/01/21 10:26:11;;;;;;;10.75;1.75;;;;;;;;;;5102048;28;20028;-81
2022/01/21 10:28:38;;;;;;;6.75;1.48;;;;;;;;;;5101167;28;20021;-79
2022/01/21 10:31:06;;;;;;;9.10;1.90;;;;;;;;;;5099534;28;20399;-80
2022/01/21 10:33:37;;;;;;;5.75;1.27;;;;;;;;;;5099956;28;20069;-80
2022/01/21 10:36:10;;;;;;;10.95;2.45;;;;;;;;;;5104042;28;20031;-80
2022/01/21 10:38:44;;;;;;;11.32;2.05;;;;;;;;;;5102014;28;20031;-79
2022/01/21 10:41:15;;;;;;;8.60;1.83;;;;;;;;;;5102503;28;20028;-80
2022/01/21 10:43:41;;;;;;;6.93;2.22;;;;;;;;;;5101994;28;20538;-80
2022/01/21 10:46:08;;;;;;;5.55;1.73;;;;;;;;;;5102289;28;20393;-78
2022/01/21 10:49:06;;;;;;;3.80;1.23;;;;;;;;;;5099959;28;20393;-79
2022/01/21 10:51:34;;;;;;;8.00;2.13;;;;;;;;;;5103653;28;20489;-80
2022/01/21 10:54:12;;;;;;;7.60;1.80;;;;;;;;;;5106120;28;20032;-80
2022/01/21 10:56:38;;;;;;;11.48;2.28;;;;;;;;;;5102937;28;20042;-80
2022/01/21 10:59:03;;;;;;;8.93;2.40;;;;;;;;;;5103898;28;20016;-81
2022/01/21 11:01:30;;;;;;;7.30;2.05;;;;;;;;;;5102314;28;20028;-81
2022/01/21 11:04:08;;;;;;;6.25;2.17;;;;;;;;;;5104253;28;20024;-81
2022/01/21 11:06:46;;;;;;;11.75;2.63;;;;;;;;;;5104394;28;20551;-81
2022/01/21 11:09:16;;;;;;;10.27;2.33;;;;;;;;;;5104973;28;20451;-81
2022/01/21 11:11:46;;;;;;;8.43;2.17;;;;;;;;;;5102747;28;20067;-82
2022/01/21 11:14:17;;;;;;;9.93;2.22;;;;;;;;;;5101099;28;20022;-80
2022/01/21 11:16:45;;;;;;;10.25;2.30;;;;;;;;;;5100264;28;20367;-81
2022/01/21 11:19:23;;;;;;;6.95;2.08;;;;;;;;;;5102918;28;20020;-79
2022/01/21 11:21:56;;;;;;;5.15;1.80;;;;;;;;;;5099535;28;20026;-81
2022/01/21 11:24:23;;;;;;;6.67;2.63;;;;;;;;;;5099747;28;20396;-82
2022/01/21 11:27:15;;;;;;;4.55;2.20;;;;;;;;;;5103872;28;20031;-81
2022/01/21 11:29:43;;;;;;;13.60;2.33;;;;;;;;;;5102866;28;20059;-81
2022/01/21 11:32:09;;;;;;;12.45;3.35;;;;;;;;;;5104684;28;20528;-80
2022/01/21 11:34:35;;;;;;;13.10;2.72;;;;;;;;;;5102074;28;20481;-82
2022/01/21 11:37:02;;;;;;;7.47;2.65;;;;;;;;;;5101753;28;20103;-80
2022/01/21 11:39:28;;;;;;;9.48;2.08;;;;;;;;;;5100954;28;20051;-80
2022/01/21 11:41:57;;;;;;;11.75;2.60;;;;;;;;;;5104324;28;20047;-81
2022/01/21 11:44:28;;;;;;;8.55;2.47;;;;;;;;;;5102937;28;20028;-81
2022/01/21 11:49:26;;;;;;;13.13;2.47;;;;;;;;;;5103468;28;20024;-81
2022/01/21 11:52:09;;;;;;;7.63;1.98;;;;;;;;;;5101763;28;20419;-80
2022/01/21 11:54:37;;;;;;;9.30;2.60;;;;;;;;;;5101255;28;20191;-81
2022/01/21 11:57:05;;;;;;;8.95;2.17;;;;;;;;;;5099985;28;20027;-81
2022/01/21 12:01:59;;;;;;;11.43;2.80;;;;;;;;;;5103190;28;20031;-80
2022/01/21 12:04:30;;;;;;;5.45;1.90;;;;;;;;;;5099737;28;20042;-79
2022/01/21 12:06:57;;;;;;;6.75;2.25;;;;;;;;;;5098496;28;20110;-81
2022/01/21 12:09:57;;;;;;;10.50;2.85;;;;;;;;;;5099919;28;20052;-80
2022/01/21 12:12:25;;;;;;;12.18;2.38;;;;;;;;;;5097757;28;20024;-81
2022/01/21 12:14:57;;;;;;;9.13;2.00;;;;;;;;;;5099514;28;20109;-81
2022/01/21 12:17:49;;;;;;;3.30;1.92;;;;;;;;;;5100742;28;20451;-81
2022/01/21 12:20:14;;;;;;;6.47;1.55;;;;;;;;;;5100822;28;20032;-81
2022/01/21 12:22:40;;;;;;;4.13;1.55;;;;;;;;;;5099768;28;20507;-81
2022/01/21 12:25:08;;;;;;;8.70;2.22;;;;;;;;;;5102332;28;20417;-79
2022/01/21 12:27:35;;;;;;;11.07;1.92;;;;;;;;;;5103965;28;20019;-81
2022/01/21 12:30:19;;;;;;;5.25;1.40;;;;;;;;;;5100571;28;20074;-82
2022/01/21 12:32:51;;;;;;;;;;;;;;;;;;5101314;28;20439;-81
2022/01/21 12:35:19;;;;;;;9.20;1.75;;;;;;;;;;5099760;28;19908;-82
2022/01/21 12:39:05;;;;;;;6.93;1.83;;;;;;;;;;5100763;28;20177;-81
2022/01/21 12:40:59;;;;;;;6.95;2.22;;;;;;;;;;5100333;28;20028;-81
2022/01/21 12:43:40;;;;;;;5.22;1.77;;;;;;;;;;5100164;28;20399;-81
2022/01/21 12:46:26;;;;;;;5.07;1.38;;;;;;;;;;5099969;28;20032;-80
2022/01/21 12:48:52;;;;;;;7.82;2.22;;;;;;;;;;5097295;28;20040;-80
2022/01/21 12:56:55;;;;;;;11.27;1.95;;;;;;;;;;5100250;28;20082;-80
2022/01/21 12:59:23;;;;;;;7.25;1.77;;;;;;;;;;5100163;28;20095;-81
2022/01/21 13:01:50;;;;;;;5.03;1.30;;;;;;;;;;5099329;28;20042;-80
2022/01/21 13:04:26;;;;;;;9.80;1.67;;;;;;;;;;5105326;28;20036;-81
2022/01/21 13:07:03;;;;;;;6.28;1.25;;;;;;;;;;5110557;28;20093;-79
2022/01/21 13:09:50;;;;;;;1.50;0.98;;;;;;;;;;5112089;28;20036;-80
2022/01/21 13:12:16;;;;;;;7.47;1.38;;;;;;;;;;5118741;28;20016;-81
2022/01/21 13:14:55;;;;;;;4.15;1.50;;;;;;;;;;5121770;28;20032;-80
2022/01/21 13:17:20;;;;;;;5.18;1.40;;;;;;;;;;5115534;28;20477;-80
2022/01/21 13:19:54;;;;;;;6.15;1.60;;;;;;;;;;5116877;28;20036;-80
2022/01/21 13:22:23;;;;;;;4.40;1.30;;;;;;;;;;5110573;28;20043;-79
2022/01/21 13:24:58;;;;;;;4.40;1.40;;;;;;;;;;5109812;28;20079;-79
2022/01/21 13:27:25;;;;;;;9.98;1.65;;;;;;;;;;5116994;28;20024;-79
2022/01/21 13:29:57;;;;;;;7.03;1.52;;;;;;;;;;5119749;28;20041;-77
2022/01/21 13:32:23;;;;;;;5.93;1.35;;;;;;;;;;5116117;28;20035;-80
2022/01/21 13:34:48;;;;;;;3.40;0.75;;;;;;;;;;5104603;28;20020;-80
2022/01/21 13:37:18;;;;;;;7.30;1.58;;;;;;;;;;5104848;28;20585;-79
2022/01/21 13:39:46;;;;;;;4.80;1.10;;;;;;;;;;5102611;28;20020;-79
2022/01/21 13:42:20;;;;;;;5.45;1.20;;;;;;;;;;5102849;28;20028;-80
2022/01/21 13:44:51;;;;;;;4.60;0.90;;;;;;;;;;5100037;28;20499;-80
2022/01/21 13:47:41;;;;;;;2.85;1.13;;;;;;;;;;5101342;28;20032;-80
2022/01/21 13:50:19;;;;;;;10.85;1.42;;;;;;;;;;5100981;28;20096;-80
2022/01/21 13:52:48;;;;;;;4.63;1.42;;;;;;;;;;5102645;28;20059;-81
2022/01/21 13:55:43;;;;;;;7.43;1.52;;;;;;;;;;5103359;28;20479;-81
2022/01/21 13:58:14;;;;;;;4.15;1.02;;;;;;;;;;5104113;28;20020;-81
2022/01/21 14:00:51;;;;;;;5.85;1.15;;;;;;;;;;5107302;28;20020;-80
2022/01/21 14:03:22;;;;;;;6.18;0.98;;;;;;;;;;5118798;28;20012;-79
2022/01/21 14:06:02;;;;;;;9.25;1.00;;;;;;;;;;5120389;28;20035;-79
2022/01/21 14:08:44;;;;;;;5.90;1.00;;;;;;;;;;5118567;28;20016;-80
2022/01/21 14:11:10;;;;;;;7.28;1.20;;;;;;;;;;5122007;28;20012;-82
2022/01/21 14:13:48;;;;;;;3.30;0.82;;;;;;;;;;5121566;28;20039;-80
2022/01/21 14:16:23;;;;;;;3.67;1.15;;;;;;;;;;5118279;28;20017;-82
2022/01/21 14:18:50;;;;;;;3.03;1.00;;;;;;;;;;5118522;28;20016;-80
2022/01/21 14:21:18;;;;;;;3.50;0.88;;;;;;;;;;5120023;28;20032;-82
2022/01/21 14:23:46;;;;;;;2.55;0.90;;;;;;;;;;5121836;28;20016;-81
2022/01/21 14:26:15;;;;;;;3.72;1.17;;;;;;;;;;5120418;28;20047;-79
2022/01/21 14:28:46;;;;;;;3.33;0.85;;;;;;;;;;5113408;28;20012;-81
2022/01/21 14:31:34;;;;;;;6.68;0.90;;;;;;;;;;5115280;28;20040;-80
2022/01/21 14:34:02;;;;;;;6.70;0.80;;;;;;;;;;5108899;28;20011;-81
2022/01/21 14:36:27;;;;;;;4.18;1.10;;;;;;;;;;5114295;28;20032;-80
2022/01/21 14:39:26;;;;;;;3.42;1.08;;;;;;;;;;5108523;28;20040;-81
2022/01/21 14:41:54;;;;;;;2.22;0.77;;;;;;;;;;5105896;28;20043;-81
2022/01/21 14:44:40;;;;;;;2.10;0.80;;;;;;;;;;5101981;28;20036;-80
2022/01/21 14:47:09;;;;;;;11.00;1.27;;;;;;;;;;5103100;28;20016;-81
2022/01/21 14:49:35;;;;;;;3.25;1.20;;;;;;;;;;5100596;28;20028;-80
2022/01/21 14:52:33;;;;;;;3.17;1.02;;;;;;;;;;5103227;28;20024;-81
2022/01/21 14:54:50;;;;;;;4.78;0.98;;;;;;;;;;5100896;28;20024;-80
2022/01/21 14:57:16;;;;;;;3.20;1.10;;;;;;;;;;5100940;28;20444;-80
2022/01/21 14:59:53;;;;;;;3.92;1.08;;;;;;;;;;5101045;28;20034;-80
2022/01/21 15:02:30;;;;;;;7.03;1.25;;;;;;;;;;5098775;28;20074;-80
2022/01/21 15:04:57;;;;;;;2.85;0.77;;;;;;;;;;5097628;28;20050;-81
2022/01/21 15:07:25;;;;;;;4.50;1.10;;;;;;;;;;5099280;28;20028;-82
2022/01/21 15:09:54;;;;;;;2.42;0.90;;;;;;;;;;5100988;28;20020;-80
2022/01/21 15:15:31;;;;;;;4.18;1.30;;;;;;;;;;5099896;28;20039;-81
2022/01/21 15:17:57;;;;;;;15.20;1.27;;;;;;;;;;5098170;28;20400;-80
2022/01/21 15:20:29;;;;;;;4.65;1.15;;;;;;;;;;5096128;28;20028;-80
2022/01/21 15:22:54;;;;;;;2.00;0.70;;;;;;;;;;5098787;28;20020;-80
2022/01/21 15:25:19;;;;;;;6.18;1.00;;;;;;;;;;5095893;28;20015;-79
2022/01/21 15:27:45;;;;;;;8.55;1.20;;;;;;;;;;5096691;28;20024;-81
2022/01/21 15:30:10;;;;;;;6.03;1.10;;;;;;;;;;5097357;28;20073;-81
2022/01/21 15:32:36;;;;;;;4.45;1.05;;;;;;;;;;5095781;28;20032;-80
2022/01/21 15:35:03;;;;;;;6.85;1.33;;;;;;;;;;5095982;28;20073;-79
2022/01/21 15:37:29;;;;;;;5.75;1.20;;;;;;;;;;5097505;28;20024;-79
2022/01/21 15:39:54;;;;;;;4.65;1.02;;;;;;;;;;5098135;28;20020;-81
2022/01/21 15:42:19;;;;;;;3.58;1.10;;;;;;;;;;5099469;28;20028;-80
2022/01/21 15:44:44;;;;;;;3.00;0.63;;;;;;;;;;5099593;28;20057;-82
2022/01/21 15:47:12;;;;;;;1.67;0.93;;;;;;;;;;5098012;28;20122;-80